Time;durP1;ratioP1;P1;durP2;ratioP2;P2;SDS_P1;SDS_P2;PMS_P1;PMS_P2;Temp;Humidity;BMP_temperature;BMP_pressure;BME280_temperature;BME280_humidity;BME280_pressure;Samples;Min_cycle;Max_cycle;Signal;HPM_P1;HPM_P2
2023/05/25 00:02:23;;;;;;;59.28;41.60;;;;;;;;;;5033242;28;20099;-71
2023/05/25 00:04:50;;;;;;;57.22;41.05;;;;;;;;;;5033688;28;20022;-74
2023/05/25 00:07:17;;;;;;;58.72;41.70;;;;;;;;;;5033427;28;20044;-74
2023/05/25 00:09:45;;;;;;;71.70;45.50;;;;;;;;;;5026971;28;20030;-71
2023/05/25 00:12:11;;;;;;;65.53;44.47;;;;;;;;;;5020195;28;20410;-72
2023/05/25 00:14:38;;;;;;;63.17;45.28;;;;;;;;;;5014037;28;20057;-72
2023/05/25 00:17:08;;;;;;;64.13;44.97;;;;;;;;;;5013578;28;20054;-72
2023/05/25 00:19:35;;;;;;;62.35;42.67;;;;;;;;;;5013680;28;20030;-70
2023/05/25 00:22:02;;;;;;;58.33;42.10;;;;;;;;;;5013936;28;20503;-71
2023/05/25 00:24:29;;;;;;;53.33;40.55;;;;;;;;;;5014275;28;20472;-70
2023/05/25 00:26:56;;;;;;;62.90;41.75;;;;;;;;;;5014396;28;20387;-69
2023/05/25 00:29:24;;;;;;;57.05;41.58;;;;;;;;;;5014165;28;20030;-69
2023/05/25 00:31:51;;;;;;;62.17;42.67;;;;;;;;;;5013521;28;20021;-69
2023/05/25 00:34:18;;;;;;;56.83;41.85;;;;;;;;;;5013596;28;20014;-71
2023/05/25 00:36:47;;;;;;;88.68;61.55;;;;;;;;;;5013487;28;20018;-70
2023/05/25 00:39:16;;;;;;;120.47;89.40;;;;;;;;;;5013463;28;20105;-70
2023/05/25 00:41:44;;;;;;;115.18;79.68;;;;;;;;;;5013502;28;20497;-70
2023/05/25 00:44:11;;;;;;;177.95;130.27;;;;;;;;;;5013266;28;20057;-70
2023/05/25 00:46:38;;;;;;;170.55;116.15;;;;;;;;;;5013471;28;20077;-71
2023/05/25 00:49:05;;;;;;;191.60;117.03;;;;;;;;;;5013382;28;20018;-69
2023/05/25 00:51:32;;;;;;;126.88;78.40;;;;;;;;;;5013046;28;20050;-71
2023/05/25 00:53:59;;;;;;;90.03;59.60;;;;;;;;;;5013563;28;20109;-70
2023/05/25 00:56:28;;;;;;;188.38;115.30;;;;;;;;;;5015755;28;20022;-70
2023/05/25 00:58:55;;;;;;;196.75;119.32;;;;;;;;;;5021838;28;20104;-71
2023/05/25 01:01:23;;;;;;;141.98;74.68;;;;;;;;;;5013247;28;20029;-71
2023/05/25 01:03:52;;;;;;;170.27;82.55;;;;;;;;;;5016870;28;20030;-70
2023/05/25 01:06:25;;;;;;;107.00;55.45;;;;;;;;;;5029243;28;20081;-71
2023/05/25 01:08:55;;;;;;;112.40;60.80;;;;;;;;;;5013259;28;20030;-71
2023/05/25 01:11:26;;;;;;;138.35;68.40;;;;;;;;;;5029317;28;20101;-72
2023/05/25 01:13:53;;;;;;;119.53;59.80;;;;;;;;;;5034070;28;20148;-71
2023/05/25 01:16:20;;;;;;;87.35;52.03;;;;;;;;;;5036774;28;20053;-70
2023/05/25 01:18:47;;;;;;;80.97;49.95;;;;;;;;;;5036592;28;20541;-71
2023/05/25 01:21:20;;;;;;;174.07;76.45;;;;;;;;;;5036768;28;20029;-72
2023/05/25 01:24:07;;;;;;;102.15;58.55;;;;;;;;;;5036628;28;20032;-71
2023/05/25 01:26:38;;;;;;;94.63;60.00;;;;;;;;;;5031004;28;20505;-71
2023/05/25 01:29:05;;;;;;;150.48;80.07;;;;;;;;;;5036522;28;20033;-72
2023/05/25 01:31:33;;;;;;;199.27;103.22;;;;;;;;;;5036262;28;20029;-75
2023/05/25 01:34:00;;;;;;;164.35;103.60;;;;;;;;;;5036607;28;20094;-73
2023/05/25 01:36:26;;;;;;;150.20;80.93;;;;;;;;;;5036470;28;20467;-71
2023/05/25 01:38:53;;;;;;;111.10;62.75;;;;;;;;;;5036194;28;20029;-71
2023/05/25 01:41:20;;;;;;;103.35;60.63;;;;;;;;;;5036389;28;20493;-73
2023/05/25 01:43:47;;;;;;;105.55;62.63;;;;;;;;;;5036265;28;20475;-73
2023/05/25 01:46:16;;;;;;;67.25;43.88;;;;;;;;;;5036032;28;20022;-72
2023/05/25 01:48:53;;;;;;;90.65;59.85;;;;;;;;;;5036129;28;20033;-72
2023/05/25 01:51:26;;;;;;;101.28;62.40;;;;;;;;;;5035812;28;20104;-73
2023/05/25 01:53:54;;;;;;;109.15;65.03;;;;;;;;;;5036166;28;20029;-72
2023/05/25 01:56:22;;;;;;;63.30;44.50;;;;;;;;;;5036063;28;20513;-73
2023/05/25 01:58:49;;;;;;;65.47;46.28;;;;;;;;;;5036101;28;20430;-74
2023/05/25 02:01:17;;;;;;;113.95;79.88;;;;;;;;;;5036566;28;20425;-73
2023/05/25 02:03:43;;;;;;;100.47;67.63;;;;;;;;;;5036208;28;20062;-73
2023/05/25 02:06:11;;;;;;;71.72;52.08;;;;;;;;;;5035893;28;20025;-74
2023/05/25 02:08:37;;;;;;;111.10;70.22;;;;;;;;;;5036673;28;20021;-73
2023/05/25 02:11:04;;;;;;;118.03;85.25;;;;;;;;;;5036428;28;20025;-73
2023/05/25 02:13:31;;;;;;;96.53;64.03;;;;;;;;;;5035876;28;20026;-74
2023/05/25 02:15:57;;;;;;;116.80;73.40;;;;;;;;;;5036119;28;20030;-72
2023/05/25 02:18:25;;;;;;;71.05;46.80;;;;;;;;;;5036068;28;20021;-71
2023/05/25 02:20:52;;;;;;;67.65;44.88;;;;;;;;;;5035746;28;20029;-72
2023/05/25 02:23:18;;;;;;;63.13;43.83;;;;;;;;;;5035537;28;20036;-73
2023/05/25 02:25:45;;;;;;;61.95;42.55;;;;;;;;;;5035598;28;20474;-70
2023/05/25 02:28:12;;;;;;;71.72;45.95;;;;;;;;;;5035737;28;20021;-69
2023/05/25 02:30:39;;;;;;;67.25;44.17;;;;;;;;;;5036043;28;20029;-70
2023/05/25 02:33:05;;;;;;;66.15;42.50;;;;;;;;;;5035355;28;20040;-70
2023/05/25 02:35:32;;;;;;;58.92;41.28;;;;;;;;;;5035345;28;20021;-70
2023/05/25 02:37:59;;;;;;;65.25;45.45;;;;;;;;;;5035871;28;20378;-69
2023/05/25 02:40:25;;;;;;;66.85;43.95;;;;;;;;;;5035865;28;20029;-69
2023/05/25 02:42:52;;;;;;;62.85;43.08;;;;;;;;;;5035141;28;20367;-70
2023/05/25 02:45:18;;;;;;;68.78;49.38;;;;;;;;;;5035205;28;20029;-70
2023/05/25 02:47:45;;;;;;;64.43;48.33;;;;;;;;;;5035224;28;20095;-68
2023/05/25 02:50:11;;;;;;;92.05;60.45;;;;;;;;;;5034884;28;20032;-68
2023/05/25 02:52:38;;;;;;;117.45;84.88;;;;;;;;;;5034892;28;20271;-70
2023/05/25 02:55:05;;;;;;;80.22;57.70;;;;;;;;;;5034380;28;20426;-70
2023/05/25 02:57:32;;;;;;;56.55;40.28;;;;;;;;;;5031420;28;20029;-66
2023/05/25 02:59:58;;;;;;;68.78;44.35;;;;;;;;;;5024059;28;20018;-71
2023/05/25 03:02:25;;;;;;;67.05;41.03;;;;;;;;;;5013374;28;20414;-69
2023/05/25 03:04:52;;;;;;;62.10;39.42;;;;;;;;;;5012850;28;20026;-72
2023/05/25 03:07:24;;;;;;;54.70;37.22;;;;;;;;;;5013196;28;20068;-74
2023/05/25 03:09:50;;;;;;;67.70;40.80;;;;;;;;;;5013933;28;20386;-74
2023/05/25 03:12:17;;;;;;;54.20;34.85;;;;;;;;;;5014263;28;20030;-75
2023/05/25 03:14:44;;;;;;;60.53;33.05;;;;;;;;;;5027556;28;20025;-73
2023/05/25 03:17:10;;;;;;;62.75;35.90;;;;;;;;;;5034883;28;20022;-76
2023/05/25 03:19:37;;;;;;;55.72;35.15;;;;;;;;;;5034640;28;20079;-72
2023/05/25 03:22:04;;;;;;;60.20;36.03;;;;;;;;;;5034742;28;20482;-75
2023/05/25 03:24:31;;;;;;;53.25;35.13;;;;;;;;;;5034486;28;20029;-78
2023/05/25 03:26:57;;;;;;;98.50;47.03;;;;;;;;;;5034765;28;20474;-77
2023/05/25 03:29:25;;;;;;;49.85;32.92;;;;;;;;;;5023301;28;20113;-75
2023/05/25 03:31:51;;;;;;;83.50;47.22;;;;;;;;;;5031132;28;20028;-76
2023/05/25 03:34:18;;;;;;;81.20;45.63;;;;;;;;;;5033857;28;20017;-72
2023/05/25 03:36:46;;;;;;;78.55;48.10;;;;;;;;;;5033290;28;20489;-78
2023/05/25 03:39:12;;;;;;;60.85;37.90;;;;;;;;;;5034051;28;20021;-73
2023/05/25 03:41:39;;;;;;;45.85;32.83;;;;;;;;;;5034276;28;20485;-70
2023/05/25 03:44:06;;;;;;;42.50;32.03;;;;;;;;;;5033932;28;20052;-69
2023/05/25 03:46:32;;;;;;;44.80;33.20;;;;;;;;;;5034227;28;20026;-67
2023/05/25 03:48:59;;;;;;;49.38;35.85;;;;;;;;;;5034282;28;20104;-72
2023/05/25 03:51:28;;;;;;;43.30;32.85;;;;;;;;;;5033768;28;20051;-68
2023/05/25 03:53:54;;;;;;;53.85;37.20;;;;;;;;;;5034054;28;20025;-75
2023/05/25 03:56:22;;;;;;;41.85;31.95;;;;;;;;;;5034094;28;20021;-75
2023/05/25 03:58:49;;;;;;;46.78;32.70;;;;;;;;;;5030481;28;20026;-74
2023/05/25 04:01:15;;;;;;;45.15;32.65;;;;;;;;;;5022785;28;20104;-75
2023/05/25 04:03:42;;;;;;;48.95;34.03;;;;;;;;;;5014411;28;20054;-68
2023/05/25 04:06:08;;;;;;;42.55;33.20;;;;;;;;;;5013900;28;20018;-66
2023/05/25 04:08:35;;;;;;;42.80;33.80;;;;;;;;;;5013945;28;20100;-66
2023/05/25 04:11:02;;;;;;;41.95;32.75;;;;;;;;;;5013792;28;20513;-66
2023/05/25 04:13:28;;;;;;;48.47;35.20;;;;;;;;;;5013731;28;20423;-67
2023/05/25 04:15:55;;;;;;;44.75;36.42;;;;;;;;;;5013824;28;20479;-67
2023/05/25 04:18:22;;;;;;;43.85;35.75;;;;;;;;;;5018725;28;20030;-68
2023/05/25 04:20:48;;;;;;;52.50;36.05;;;;;;;;;;5022044;28;20014;-67
2023/05/25 04:23:15;;;;;;;44.03;35.40;;;;;;;;;;5022189;28;20026;-68
2023/05/25 04:25:42;;;;;;;51.38;37.05;;;;;;;;;;5023524;28;20030;-73
2023/05/25 04:28:09;;;;;;;46.45;36.58;;;;;;;;;;5021981;28;20022;-69
2023/05/25 04:30:35;;;;;;;44.63;34.15;;;;;;;;;;5033165;28;20410;-70
2023/05/25 04:33:05;;;;;;;45.55;34.45;;;;;;;;;;5024726;28;20033;-69
2023/05/25 04:35:32;;;;;;;37.67;31.77;;;;;;;;;;5013370;28;20105;-70
2023/05/25 04:38:01;;;;;;;48.03;35.08;;;;;;;;;;5013660;28;20426;-74
2023/05/25 04:40:28;;;;;;;48.28;38.08;;;;;;;;;;5018248;28;20025;-70
2023/05/25 04:42:55;;;;;;;43.90;35.35;;;;;;;;;;5024952;28;20034;-69
2023/05/25 04:45:22;;;;;;;50.80;36.45;;;;;;;;;;5023373;28;20470;-67
2023/05/25 04:47:49;;;;;;;57.15;38.83;;;;;;;;;;5021959;28;20582;-70
2023/05/25 04:50:16;;;;;;;57.50;37.38;;;;;;;;;;5029824;28;20024;-67
2023/05/25 04:52:42;;;;;;;51.38;39.78;;;;;;;;;;5028616;28;20057;-68
2023/05/25 04:55:09;;;;;;;57.03;36.53;;;;;;;;;;5027833;28;20100;-69
2023/05/25 04:57:35;;;;;;;268.50;84.13;;;;;;;;;;5026399;28;20030;-68
2023/05/25 05:00:02;;;;;;;69.60;41.03;;;;;;;;;;5029467;28;20064;-68
2023/05/25 05:02:29;;;;;;;60.88;37.50;;;;;;;;;;5031450;28;20033;-68
2023/05/25 05:04:56;;;;;;;45.50;36.35;;;;;;;;;;5027187;28;20041;-68
2023/05/25 05:07:22;;;;;;;88.05;47.20;;;;;;;;;;5026334;28;20025;-68
2023/05/25 05:09:49;;;;;;;79.72;45.42;;;;;;;;;;5026064;28;20028;-67
2023/05/25 05:12:16;;;;;;;58.13;38.90;;;;;;;;;;5026980;28;20068;-69
2023/05/25 05:14:42;;;;;;;92.72;53.33;;;;;;;;;;5025393;28;20097;-69
2023/05/25 05:17:09;;;;;;;91.85;53.25;;;;;;;;;;5025583;28;20042;-69
2023/05/25 05:19:36;;;;;;;76.60;45.40;;;;;;;;;;5024407;28;20089;-69
2023/05/25 05:22:02;;;;;;;65.00;43.65;;;;;;;;;;5034049;28;20029;-68
2023/05/25 05:24:29;;;;;;;53.97;39.75;;;;;;;;;;5036624;28;20036;-68
2023/05/25 05:26:56;;;;;;;60.63;41.22;;;;;;;;;;5036510;28;20026;-69
2023/05/25 05:29:22;;;;;;;76.22;47.38;;;;;;;;;;5030073;28;20032;-68
2023/05/25 05:31:49;;;;;;;59.72;40.85;;;;;;;;;;5021863;28;20383;-68
2023/05/25 05:34:16;;;;;;;60.10;38.80;;;;;;;;;;5016839;28;20022;-68
2023/05/25 05:36:42;;;;;;;51.35;36.47;;;;;;;;;;5016301;28;20471;-68
2023/05/25 05:39:09;;;;;;;67.93;42.72;;;;;;;;;;5018122;28;20033;-69
2023/05/25 05:41:36;;;;;;;67.72;43.00;;;;;;;;;;5028846;28;20029;-67
2023/05/25 05:44:02;;;;;;;112.63;57.13;;;;;;;;;;5026025;28;20088;-69
2023/05/25 05:46:29;;;;;;;104.95;52.45;;;;;;;;;;5025165;28;20025;-68
2023/05/25 05:48:55;;;;;;;83.40;45.60;;;;;;;;;;5025181;28;20056;-68
2023/05/25 05:51:22;;;;;;;48.38;34.17;;;;;;;;;;5025003;28;20071;-69
2023/05/25 05:53:50;;;;;;;53.47;36.90;;;;;;;;;;5021625;28;20033;-69
2023/05/25 05:56:17;;;;;;;46.50;32.28;;;;;;;;;;5021075;28;20025;-69
2023/05/25 05:58:44;;;;;;;51.10;35.53;;;;;;;;;;5024192;28;20025;-68
2023/05/25 06:01:10;;;;;;;41.53;32.88;;;;;;;;;;5030669;28;20079;-70
2023/05/25 06:03:38;;;;;;;38.90;32.58;;;;;;;;;;5026435;28;20179;-68
2023/05/25 06:06:05;;;;;;;38.22;30.08;;;;;;;;;;5023404;28;20026;-69
2023/05/25 06:08:31;;;;;;;51.25;36.22;;;;;;;;;;5028950;28;20026;-70
2023/05/25 06:10:58;;;;;;;59.53;45.63;;;;;;;;;;5026000;28;20014;-70
2023/05/25 06:13:24;;;;;;;42.67;34.70;;;;;;;;;;5028645;28;20363;-69
2023/05/25 06:15:51;;;;;;;48.05;35.63;;;;;;;;;;5025962;28;20022;-69
2023/05/25 06:18:18;;;;;;;78.28;49.97;;;;;;;;;;5024321;28;20049;-72
2023/05/25 06:20:44;;;;;;;50.78;36.10;;;;;;;;;;5024502;28;20083;-71
2023/05/25 06:23:12;;;;;;;33.15;26.60;;;;;;;;;;5023509;28;20029;-71
2023/05/25 06:25:40;;;;;;;47.60;31.88;;;;;;;;;;5025097;28;20033;-70
2023/05/25 06:28:06;;;;;;;30.60;23.25;;;;;;;;;;5023898;28;20026;-68
2023/05/25 06:30:33;;;;;;;27.60;21.02;;;;;;;;;;5024499;28;20453;-70
2023/05/25 06:32:59;;;;;;;25.77;20.23;;;;;;;;;;5025820;28;20041;-69
2023/05/25 06:35:26;;;;;;;24.30;18.60;;;;;;;;;;5025413;28;20017;-72
2023/05/25 06:37:53;;;;;;;21.95;15.05;;;;;;;;;;5025664;28;20045;-71
2023/05/25 06:40:19;;;;;;;25.38;19.67;;;;;;;;;;5024165;28;20022;-71
2023/05/25 06:42:46;;;;;;;56.80;35.30;;;;;;;;;;5025955;28;20053;-71
2023/05/25 06:45:13;;;;;;;41.38;26.23;;;;;;;;;;5026724;28;20025;-71
2023/05/25 06:47:39;;;;;;;33.42;22.10;;;;;;;;;;5030638;28;20160;-71
2023/05/25 06:50:06;;;;;;;39.67;26.60;;;;;;;;;;5025754;28;20072;-70
2023/05/25 06:52:33;;;;;;;50.08;36.42;;;;;;;;;;5025724;28;20712;-71
2023/05/25 06:54:59;;;;;;;42.78;30.17;;;;;;;;;;5023842;28;20018;-69
2023/05/25 06:57:26;;;;;;;29.85;23.20;;;;;;;;;;5025756;28;20018;-69
2023/05/25 06:59:53;;;;;;;45.25;33.42;;;;;;;;;;5026713;28;20017;-69
2023/05/25 07:02:19;;;;;;;30.50;24.40;;;;;;;;;;5029846;28;20026;-71
2023/05/25 07:04:46;;;;;;;33.72;26.98;;;;;;;;;;5024531;28;20079;-70
2023/05/25 07:07:13;;;;;;;46.60;35.20;;;;;;;;;;5026288;28;20029;-71
2023/05/25 07:09:40;;;;;;;29.30;20.67;;;;;;;;;;5022953;28;20116;-70
2023/05/25 07:12:08;;;;;;;36.20;24.33;;;;;;;;;;5028824;28;20040;-69
2023/05/25 07:14:35;;;;;;;23.80;20.23;;;;;;;;;;5025571;28;20021;-70
2023/05/25 07:17:02;;;;;;;24.00;21.13;;;;;;;;;;5023899;28;20026;-70
2023/05/25 07:19:28;;;;;;;50.38;37.10;;;;;;;;;;5030930;28;20068;-71
2023/05/25 07:21:55;;;;;;;83.97;65.18;;;;;;;;;;5031788;28;20529;-70
2023/05/25 07:24:22;;;;;;;37.40;26.85;;;;;;;;;;5024504;28;20033;-69
2023/05/25 07:26:48;;;;;;;34.13;26.02;;;;;;;;;;5024022;28;20059;-70
2023/05/25 07:29:15;;;;;;;49.35;37.50;;;;;;;;;;5022911;28;20378;-70
2023/05/25 07:31:41;;;;;;;40.33;29.25;;;;;;;;;;5024847;28;20060;-70
2023/05/25 07:34:08;;;;;;;43.83;30.90;;;;;;;;;;5022544;28;20026;-71
2023/05/25 07:36:35;;;;;;;47.70;37.28;;;;;;;;;;5023383;28;20029;-70
2023/05/25 07:39:01;;;;;;;44.45;34.60;;;;;;;;;;5022825;28;20481;-68
2023/05/25 07:41:28;;;;;;;41.40;29.30;;;;;;;;;;5024590;28;20076;-68
2023/05/25 07:43:54;;;;;;;43.85;31.83;;;;;;;;;;5023306;28;20104;-70
2023/05/25 07:46:23;;;;;;;34.15;26.52;;;;;;;;;;5022837;28;20105;-69
2023/05/25 07:48:50;;;;;;;42.22;32.90;;;;;;;;;;5024341;28;20025;-70
2023/05/25 07:51:17;;;;;;;46.63;33.08;;;;;;;;;;5024507;28;20033;-70
2023/05/25 07:53:44;;;;;;;35.42;27.40;;;;;;;;;;5028054;28;20092;-69
2023/05/25 07:56:10;;;;;;;36.65;29.83;;;;;;;;;;5024436;28;20017;-72
2023/05/25 07:58:37;;;;;;;33.63;28.35;;;;;;;;;;5023077;28;20545;-72
2023/05/25 08:01:03;;;;;;;38.90;28.50;;;;;;;;;;5020807;28;20021;-72
2023/05/25 08:03:30;;;;;;;29.50;24.15;;;;;;;;;;5018925;28;20024;-72
2023/05/25 08:05:57;;;;;;;33.60;28.48;;;;;;;;;;5021911;28;20104;-72
2023/05/25 08:08:23;;;;;;;41.35;33.22;;;;;;;;;;5028487;28;20024;-72
2023/05/25 08:10:50;;;;;;;40.28;31.17;;;;;;;;;;5027162;28;20024;-72
2023/05/25 08:13:17;;;;;;;39.33;30.55;;;;;;;;;;5025581;28;20026;-73
2023/05/25 08:15:43;;;;;;;34.50;27.63;;;;;;;;;;5021746;28;20137;-73
2023/05/25 08:18:10;;;;;;;34.35;25.30;;;;;;;;;;5024269;28;20017;-73
2023/05/25 08:20:36;;;;;;;40.88;31.27;;;;;;;;;;5021642;28;20022;-71
2023/05/25 08:23:03;;;;;;;37.60;30.60;;;;;;;;;;5028283;28;20017;-72
2023/05/25 08:25:30;;;;;;;41.35;30.98;;;;;;;;;;5024525;28;20049;-71
2023/05/25 08:27:57;;;;;;;42.28;30.45;;;;;;;;;;5021793;28;20395;-73
2023/05/25 08:30:23;;;;;;;39.05;28.95;;;;;;;;;;5013451;28;20548;-73
2023/05/25 08:32:52;;;;;;;37.33;29.45;;;;;;;;;;5032519;28;20068;-72
2023/05/25 08:35:19;;;;;;;38.60;28.85;;;;;;;;;;5027329;28;20458;-72
2023/05/25 08:37:46;;;;;;;43.72;30.85;;;;;;;;;;5025266;28;20096;-69
2023/05/25 08:40:15;;;;;;;45.65;33.20;;;;;;;;;;5028824;28;20073;-72
2023/05/25 08:42:42;;;;;;;42.33;33.20;;;;;;;;;;5017756;28;20051;-71
2023/05/25 08:45:09;;;;;;;49.47;36.55;;;;;;;;;;5022029;28;20087;-72
2023/05/25 08:47:40;;;;;;;44.25;36.08;;;;;;;;;;5022734;28;20022;-72
2023/05/25 08:50:10;;;;;;;47.47;35.47;;;;;;;;;;5023764;28;20038;-72
2023/05/25 08:52:39;;;;;;;46.55;36.05;;;;;;;;;;5023867;28;20138;-73
2023/05/25 08:55:08;;;;;;;45.70;35.17;;;;;;;;;;5022131;28;20026;-73
2023/05/25 08:57:48;;;;;;;48.22;34.10;;;;;;;;;;5021076;28;20026;-72
2023/05/25 09:00:17;;;;;;;42.78;35.33;;;;;;;;;;5027218;28;20075;-72
2023/05/25 09:03:05;;;;;;;47.22;36.10;;;;;;;;;;5023416;28;20030;-73
2023/05/25 09:05:35;;;;;;;43.03;36.00;;;;;;;;;;5024619;28;20068;-72
2023/05/25 09:08:06;;;;;;;45.13;37.63;;;;;;;;;;5023075;28;20068;-74
2023/05/25 09:10:33;;;;;;;;;;;;;;;;;;5023194;28;20083;-71
2023/05/25 09:12:59;;;;;;;48.53;36.45;;;;;;;;;;5020857;28;19909;-71
2023/05/25 09:15:26;;;;;;;44.83;35.78;;;;;;;;;;5022395;28;20017;-71
2023/05/25 09:17:53;;;;;;;45.70;36.70;;;;;;;;;;5022627;28;20113;-72
2023/05/25 09:20:20;;;;;;;42.67;36.45;;;;;;;;;;5020906;28;20396;-72
2023/05/25 09:22:47;;;;;;;49.47;39.25;;;;;;;;;;5022244;28;20107;-71
2023/05/25 09:25:19;;;;;;;45.28;33.33;;;;;;;;;;5022557;28;20022;-72
2023/05/25 09:27:45;;;;;;;44.22;36.45;;;;;;;;;;5021381;28;20101;-72
2023/05/25 09:30:13;;;;;;;57.40;42.65;;;;;;;;;;5021270;28;20029;-70
2023/05/25 09:32:39;;;;;;;51.20;41.75;;;;;;;;;;5026137;28;20025;-71
2023/05/25 09:35:07;;;;;;;51.38;41.47;;;;;;;;;;5028023;28;20470;-71
2023/05/25 09:37:33;;;;;;;50.53;40.47;;;;;;;;;;5018769;28;20034;-71
2023/05/25 09:40:00;;;;;;;57.20;42.15;;;;;;;;;;5023773;28;20045;-70
2023/05/25 09:42:27;;;;;;;45.63;37.80;;;;;;;;;;5036347;28;20061;-67
2023/05/25 09:44:54;;;;;;;39.80;32.35;;;;;;;;;;5027500;28;20036;-68
2023/05/25 09:47:20;;;;;;;44.90;35.35;;;;;;;;;;5026411;28;20029;-71
2023/05/25 09:49:49;;;;;;;48.63;36.50;;;;;;;;;;5025154;28;20022;-70
2023/05/25 09:52:16;;;;;;;45.50;35.65;;;;;;;;;;5023961;28;20041;-70
2023/05/25 09:54:44;;;;;;;43.30;33.90;;;;;;;;;;5026171;28;20010;-68
2023/05/25 09:57:11;;;;;;;40.15;32.60;;;;;;;;;;5025437;28;20018;-69
2023/05/25 09:59:37;;;;;;;45.30;32.40;;;;;;;;;;5023931;28;20521;-70
2023/05/25 10:02:04;;;;;;;48.00;37.70;;;;;;;;;;5025760;28;20039;-68
2023/05/25 10:04:31;;;;;;;44.53;35.17;;;;;;;;;;5025452;28;20026;-70
2023/05/25 10:06:58;;;;;;;50.03;39.50;;;;;;;;;;5023717;28;20018;-69
2023/05/25 10:09:27;;;;;;;50.00;35.78;;;;;;;;;;5016210;28;20022;-72
2023/05/25 10:11:54;;;;;;;59.92;42.90;;;;;;;;;;5015914;28;20021;-70
2023/05/25 10:14:24;;;;;;;49.78;37.83;;;;;;;;;;5015849;28;20170;-69
2023/05/25 10:16:52;;;;;;;54.33;43.35;;;;;;;;;;5026485;28;20057;-71
2023/05/25 10:19:23;;;;;;;57.30;43.30;;;;;;;;;;5035677;28;20025;-69
2023/05/25 10:21:58;;;;;;;50.03;40.25;;;;;;;;;;5035483;28;20100;-70
2023/05/25 10:24:31;;;;;;;50.67;39.78;;;;;;;;;;5035589;28;20089;-69
2023/05/25 10:27:00;;;;;;;50.75;39.80;;;;;;;;;;5035043;28;20049;-68
2023/05/25 10:29:28;;;;;;;69.95;40.50;;;;;;;;;;5035346;28;20040;-69
2023/05/25 10:31:55;;;;;;;68.07;41.13;;;;;;;;;;5035428;28;20028;-70
2023/05/25 10:34:22;;;;;;;56.08;45.30;;;;;;;;;;5035244;28;20029;-69
2023/05/25 10:36:49;;;;;;;49.97;40.97;;;;;;;;;;5035457;28;20018;-70
2023/05/25 10:39:16;;;;;;;63.55;50.83;;;;;;;;;;5035271;28;20017;-70
2023/05/25 10:41:43;;;;;;;71.72;51.25;;;;;;;;;;5035135;28;20029;-74
2023/05/25 10:44:09;;;;;;;71.30;53.88;;;;;;;;;;5035275;28;20025;-73
2023/05/25 10:46:36;;;;;;;68.18;52.95;;;;;;;;;;5035093;28;20028;-69
2023/05/25 10:49:03;;;;;;;67.60;50.50;;;;;;;;;;5035292;28;20033;-70
2023/05/25 10:51:39;;;;;;;67.25;47.20;;;;;;;;;;5034751;28;20068;-75
2023/05/25 10:54:06;;;;;;;122.00;80.85;;;;;;;;;;5035042;28;20402;-71
2023/05/25 10:56:33;;;;;;;112.90;84.63;;;;;;;;;;5032350;28;20100;-71
2023/05/25 10:59:00;;;;;;;90.22;71.55;;;;;;;;;;5024076;28;20387;-71
2023/05/25 11:01:27;;;;;;;74.55;56.17;;;;;;;;;;5014907;28;20033;-69
2023/05/25 11:03:56;;;;;;;90.60;64.40;;;;;;;;;;5016971;28;20072;-71
2023/05/25 11:06:43;;;;;;;92.65;61.80;;;;;;;;;;5023750;28;20025;-72
2023/05/25 11:09:32;;;;;;;88.38;62.75;;;;;;;;;;5027240;28;20026;-71
2023/05/25 11:12:00;;;;;;;79.85;56.67;;;;;;;;;;5024684;28;20044;-69
2023/05/25 11:14:30;;;;;;;83.30;55.88;;;;;;;;;;5024185;28;20013;-70
2023/05/25 11:17:09;;;;;;;115.85;66.97;;;;;;;;;;5024698;28;20719;-70
2023/05/25 11:20:01;;;;;;;126.88;73.65;;;;;;;;;;5024024;28;20030;-71
2023/05/25 11:22:31;;;;;;;136.73;72.43;;;;;;;;;;5022878;28;20083;-69
2023/05/25 11:24:59;;;;;;;109.20;63.22;;;;;;;;;;5017955;28;20030;-72
2023/05/25 11:27:27;;;;;;;107.50;67.22;;;;;;;;;;5014700;28;20022;-73
2023/05/25 11:29:57;;;;;;;110.18;67.55;;;;;;;;;;5023246;28;20021;-73
2023/05/25 11:32:24;;;;;;;101.65;64.70;;;;;;;;;;5022370;28;20021;-70
2023/05/25 11:34:54;;;;;;;64.22;47.30;;;;;;;;;;5024238;28;20028;-70
2023/05/25 11:37:23;;;;;;;76.65;47.28;;;;;;;;;;5023909;28;20014;-70
2023/05/25 11:39:50;;;;;;;56.72;40.35;;;;;;;;;;5022125;28;20026;-72
2023/05/25 11:42:18;;;;;;;50.72;37.33;;;;;;;;;;5023295;28;20324;-70
2023/05/25 11:44:45;;;;;;;50.78;37.20;;;;;;;;;;5027352;28;20425;-70
2023/05/25 11:47:13;;;;;;;61.90;42.15;;;;;;;;;;5022408;28;20026;-71
2023/05/25 11:49:44;;;;;;;55.80;39.03;;;;;;;;;;5022815;28;20022;-68
2023/05/25 11:52:12;;;;;;;49.20;36.80;;;;;;;;;;5023713;28;20326;-69
2023/05/25 11:54:41;;;;;;;64.88;41.63;;;;;;;;;;5024030;28;20041;-68
2023/05/25 11:57:21;;;;;;;54.88;38.08;;;;;;;;;;5023406;28;20025;-67
2023/05/25 11:59:50;;;;;;;64.78;42.03;;;;;;;;;;5023734;28;20505;-69
2023/05/25 12:02:17;;;;;;;62.83;38.95;;;;;;;;;;5022860;28;20113;-66
2023/05/25 12:05:05;;;;;;;59.08;38.20;;;;;;;;;;5022290;28;20048;-67
2023/05/25 12:07:32;;;;;;;68.00;39.60;;;;;;;;;;5022251;28;20507;-68
2023/05/25 12:10:09;;;;;;;59.20;37.95;;;;;;;;;;5022722;28;20025;-67
2023/05/25 12:12:50;;;;;;;69.38;41.67;;;;;;;;;;5022471;28;20032;-68
2023/05/25 12:15:18;;;;;;;49.83;36.15;;;;;;;;;;5028853;28;20112;-67
2023/05/25 12:17:45;;;;;;;54.03;37.10;;;;;;;;;;5021864;28;20068;-67
2023/05/25 12:20:13;;;;;;;55.67;38.28;;;;;;;;;;5022964;28;20471;-66
2023/05/25 12:22:41;;;;;;;55.45;38.83;;;;;;;;;;5022142;28;20041;-66
2023/05/25 12:25:09;;;;;;;46.78;34.15;;;;;;;;;;5021460;28;20029;-67
2023/05/25 12:27:36;;;;;;;51.17;37.22;;;;;;;;;;5022971;28;20068;-68
2023/05/25 12:30:04;;;;;;;51.55;36.08;;;;;;;;;;5022167;28;20026;-68
2023/05/25 12:32:31;;;;;;;50.80;35.00;;;;;;;;;;5020751;28;20103;-69
2023/05/25 12:35:07;;;;;;;47.50;35.58;;;;;;;;;;5022245;28;20048;-68
2023/05/25 12:37:34;;;;;;;52.05;35.33;;;;;;;;;;5022806;28;20014;-70
2023/05/25 12:40:01;;;;;;;51.22;36.35;;;;;;;;;;5021644;28;20010;-69
2023/05/25 12:42:30;;;;;;;43.65;33.45;;;;;;;;;;5022026;28;20024;-69
2023/05/25 12:44:57;;;;;;;50.53;36.40;;;;;;;;;;5025884;28;20052;-69
2023/05/25 12:47:27;;;;;;;59.67;47.95;;;;;;;;;;5023000;28;20032;-69
2023/05/25 12:50:11;;;;;;;45.17;33.60;;;;;;;;;;5013255;28;20037;-71
2023/05/25 12:52:39;;;;;;;112.57;79.82;;;;;;;;;;5012769;28;20052;-70
2023/05/25 12:55:26;;;;;;;52.00;39.40;;;;;;;;;;5013198;28;20029;-70
2023/05/25 12:57:53;;;;;;;71.75;54.88;;;;;;;;;;5013438;28;20021;-70
2023/05/25 13:00:23;;;;;;;49.97;36.38;;;;;;;;;;5013319;28;20037;-71
2023/05/25 13:02:51;;;;;;;38.78;31.27;;;;;;;;;;5013122;28;20053;-71
2023/05/25 13:05:21;;;;;;;37.40;30.38;;;;;;;;;;5013308;28;20026;-71
2023/05/25 13:07:48;;;;;;;48.75;31.98;;;;;;;;;;5013254;28;20083;-71
2023/05/25 13:10:16;;;;;;;41.92;30.63;;;;;;;;;;5016875;28;20110;-71
2023/05/25 13:12:44;;;;;;;41.75;31.02;;;;;;;;;;5017433;28;20439;-70
2023/05/25 13:15:11;;;;;;;42.50;30.88;;;;;;;;;;5026514;28;20053;-68
2023/05/25 13:17:37;;;;;;;38.63;28.52;;;;;;;;;;5037223;28;20017;-71
2023/05/25 13:20:04;;;;;;;41.67;30.77;;;;;;;;;;5036947;28;20528;-71
2023/05/25 13:22:31;;;;;;;40.83;30.27;;;;;;;;;;5037064;28;20053;-70
2023/05/25 13:24:58;;;;;;;43.50;33.00;;;;;;;;;;5036761;28;20026;-72
2023/05/25 13:27:25;;;;;;;38.97;31.05;;;;;;;;;;5037017;28;20026;-71
2023/05/25 13:29:51;;;;;;;39.17;30.38;;;;;;;;;;5037038;28;20025;-71
2023/05/25 13:32:19;;;;;;;41.92;31.42;;;;;;;;;;5035925;28;20028;-71
2023/05/25 13:34:46;;;;;;;42.47;30.02;;;;;;;;;;5036222;28;20022;-70
2023/05/25 13:37:12;;;;;;;40.42;31.60;;;;;;;;;;5036497;28;20099;-70
2023/05/25 13:39:39;;;;;;;38.88;31.75;;;;;;;;;;5035928;28;20034;-71
2023/05/25 13:42:06;;;;;;;39.65;29.27;;;;;;;;;;5036845;28;20057;-71
2023/05/25 13:44:33;;;;;;;39.60;28.85;;;;;;;;;;5029006;28;20132;-72
2023/05/25 13:47:00;;;;;;;40.10;29.30;;;;;;;;;;5027193;28;20029;-69
2023/05/25 13:49:26;;;;;;;35.55;28.50;;;;;;;;;;5025496;28;20021;-70
2023/05/25 13:51:53;;;;;;;32.78;27.10;;;;;;;;;;5036447;28;20041;-69
2023/05/25 13:54:20;;;;;;;36.75;27.65;;;;;;;;;;5036106;28;20474;-70
2023/05/25 13:56:47;;;;;;;38.20;27.15;;;;;;;;;;5036261;28;20100;-69
2023/05/25 13:59:14;;;;;;;47.75;29.42;;;;;;;;;;5036172;28;20029;-70
2023/05/25 14:01:40;;;;;;;37.15;26.88;;;;;;;;;;5029446;28;20374;-70
2023/05/25 14:04:08;;;;;;;36.42;28.08;;;;;;;;;;5030108;28;20076;-68
2023/05/25 14:06:35;;;;;;;35.33;26.73;;;;;;;;;;5022315;28;20049;-69
2023/05/25 14:09:02;;;;;;;30.40;24.77;;;;;;;;;;5016320;28;20030;-70
2023/05/25 14:11:28;;;;;;;34.47;26.30;;;;;;;;;;5015561;28;20084;-69
2023/05/25 14:13:55;;;;;;;33.50;26.60;;;;;;;;;;5015955;28;20032;-69
2023/05/25 14:16:22;;;;;;;35.05;27.10;;;;;;;;;;5015930;28;20056;-68
2023/05/25 14:18:48;;;;;;;37.17;26.60;;;;;;;;;;5015832;28;20022;-68
2023/05/25 14:21:15;;;;;;;33.90;26.30;;;;;;;;;;5015186;28;20029;-68